This is the latest recevied weather packets stored in our database for station/object N0EDB-13. If no packets are shown the sender has not sent any weather packets the latest 10 day(s).
| Time | Temp. | Humidity | Pressure | Rain* | Wind** | Luminosity | Snow |
|---|---|---|---|---|---|---|---|
| 1777798496 | 5.56° C | 61% | 1515.8 hPa | 0 mm | - | 0 W/m² | - |
| 1777798196 | 5.56° C | 49% | 1515.7 hPa | 0 mm | - | 0 W/m² | - |
| 1777797895 | 6.11° C | 49% | 1514 hPa | 0 mm | - | 0 W/m² | - |
| 1777797594 | 6.11° C | 49% | 1513 hPa | 0 mm | - | 0 W/m² | - |
| 1777797293 | 6.67° C | 48% | 1512.7 hPa | 0 mm | - | 0 W/m² | - |
| 1777796993 | 6.67° C | 46% | 1511.7 hPa | 0 mm | - | 0 W/m² | - |
| 1777796692 | 6.67° C | 47% | 1512.5 hPa | 0 mm | - | 0 W/m² | - |
| 1777796392 | 6.67° C | 49% | 1512.9 hPa | 0 mm | - | 0 W/m² | - |
| 1777796092 | 6.67° C | 50% | 1512.7 hPa | 0 mm | - | 0 W/m² | - |
| 1777795792 | 6.67° C | 47% | 1512.3 hPa | 0 mm | - | 0 W/m² | - |
| 1777795492 | 7.22° C | 45% | 1510.9 hPa | 0 mm | - | 0 W/m² | - |
| 1777795192 | 7.78° C | 44% | 1509.7 hPa | 0 mm | - | 0 W/m² | - |
| 1777794891 | 7.78° C | 43% | 1509.3 hPa | 0 mm | - | 0 W/m² | - |
| 1777794591 | 7.78° C | 42% | 1509.4 hPa | 0 mm | - | 0 W/m² | - |
| 1777794290 | 7.78° C | 43% | 1509.7 hPa | 0 mm | - | 0 W/m² | - |
| 1777793990 | 7.78° C | 43% | 1510.3 hPa | 0 mm | - | 0 W/m² | - |
| 1777793689 | 7.22° C | 45% | 1510.7 hPa | 0 mm | - | 0 W/m² | - |
| 1777793389 | 7.78° C | 43% | 1510.1 hPa | 0 mm | - | 0 W/m² | - |
| 1777793088 | 7.78° C | 43% | 1509.7 hPa | 0 mm | - | 0 W/m² | - |
| 1777792787 | 7.78° C | 42% | 1509.2 hPa | 0 mm | - | 0 W/m² | - |
| 1777792487 | 7.78° C | 42% | 1509.4 hPa | 0 mm | - | 0 W/m² | - |
| 1777792187 | 7.78° C | 43% | 1510 hPa | 0 mm | - | 0 W/m² | - |
| 1777791886 | 7.78° C | 46% | 1510.9 hPa | 0 mm | - | 0 W/m² | - |
| 1777791586 | 7.22° C | 47% | 1511.4 hPa | 0 mm | - | 0 W/m² | - |
| 1777791285 | 7.22° C | 47% | 1511.4 hPa | 0 mm | - | 0 W/m² | - |
* Rain latest hour (hover to see other rain measurements)
** Current wind speed in m/s (hover to see current wind gust speed)